sensor_id;sensor_type;location;lat;lon;timestamp;pressure;altitude;pressure_sealevel;temperature;humidity
31331;BME280;34067;39.548;-76.088;2022-10-26T00:00:47;101488.55;;;18.84;79.94
31331;BME280;34067;39.548;-76.088;2022-10-26T00:03:15;101486.31;;;18.85;79.72
31331;BME280;34067;39.548;-76.088;2022-10-26T00:05:42;101484.91;;;18.75;80.01
31331;BME280;34067;39.548;-76.088;2022-10-26T00:08:10;101484.11;;;18.94;79.45
31331;BME280;34067;39.548;-76.088;2022-10-26T00:10:38;101484.14;;;18.92;79.52
31331;BME280;34067;39.548;-76.088;2022-10-26T00:13:09;101484.44;;;18.79;79.73
31331;BME280;34067;39.548;-76.088;2022-10-26T00:15:40;101482.84;;;18.52;80.55
31331;BME280;34067;39.548;-76.088;2022-10-26T00:18:08;101482.18;;;18.94;80.70
31331;BME280;34067;39.548;-76.088;2022-10-26T00:20:36;101477.59;;;18.68;80.90
31331;BME280;34067;39.548;-76.088;2022-10-26T00:23:03;101469.29;;;18.13;82.81
31331;BME280;34067;39.548;-76.088;2022-10-26T00:25:31;101463.63;;;18.78;82.45
31331;BME280;34067;39.548;-76.088;2022-10-26T00:27:59;101460.13;;;18.37;82.62
31331;BME280;34067;39.548;-76.088;2022-10-26T00:30:27;101456.18;;;18.29;82.81
31331;BME280;34067;39.548;-76.088;2022-10-26T00:32:55;101454.18;;;18.42;83.75
31331;BME280;34067;39.548;-76.088;2022-10-26T00:35:23;101457.17;;;18.06;83.55
31331;BME280;34067;39.548;-76.088;2022-10-26T00:37:55;101454.89;;;18.03;83.81
31331;BME280;34067;39.548;-76.088;2022-10-26T00:40:27;101454.60;;;18.18;84.78
31331;BME280;34067;39.548;-76.088;2022-10-26T00:42:56;101451.92;;;18.24;84.95
31331;BME280;34067;39.548;-76.088;2022-10-26T00:45:25;101451.08;;;17.88;85.01
31331;BME280;34067;39.548;-76.088;2022-10-26T00:47:57;101453.69;;;19.08;84.29
31331;BME280;34067;39.548;-76.088;2022-10-26T00:50:31;101452.05;;;18.04;84.23
31331;BME280;34067;39.548;-76.088;2022-10-26T00:53:01;101450.29;;;17.75;85.22
31331;BME280;34067;39.548;-76.088;2022-10-26T00:55:32;101452.13;;;17.76;85.32
31331;BME280;34067;39.548;-76.088;2022-10-26T00:58:03;101450.42;;;17.77;85.46
31331;BME280;34067;39.548;-76.088;2022-10-26T01:00:32;101449.39;;;17.98;84.40
31331;BME280;34067;39.548;-76.088;2022-10-26T01:03:02;101448.21;;;18.21;84.03
31331;BME280;34067;39.548;-76.088;2022-10-26T01:05:33;101446.39;;;18.19;83.82
31331;BME280;34067;39.548;-76.088;2022-10-26T01:08:02;101446.05;;;18.35;84.38
31331;BME280;34067;39.548;-76.088;2022-10-26T01:10:30;101449.82;;;17.48;85.39
31331;BME280;34067;39.548;-76.088;2022-10-26T01:12:58;101451.49;;;17.25;85.33
31331;BME280;34067;39.548;-76.088;2022-10-26T01:15:33;101451.68;;;18.26;84.84
31331;BME280;34067;39.548;-76.088;2022-10-26T01:18:09;101451.10;;;18.19;83.76
31331;BME280;34067;39.548;-76.088;2022-10-26T01:21:26;101450.08;;;17.95;84.56
31331;BME280;34067;39.548;-76.088;2022-10-26T01:24:19;101448.54;;;17.87;84.75
31331;BME280;34067;39.548;-76.088;2022-10-26T01:27:04;101451.00;;;18.17;83.81
31331;BME280;34067;39.548;-76.088;2022-10-26T01:29:56;101454.14;;;17.56;85.59
31331;BME280;34067;39.548;-76.088;2022-10-26T01:32:31;101454.10;;;17.98;85.71
31331;BME280;34067;39.548;-76.088;2022-10-26T01:35:07;101452.27;;;17.76;85.56
31331;BME280;34067;39.548;-76.088;2022-10-26T01:37:40;101454.19;;;18.03;84.43
31331;BME280;34067;39.548;-76.088;2022-10-26T01:40:16;101458.24;;;18.31;83.44
31331;BME280;34067;39.548;-76.088;2022-10-26T01:42:52;101460.49;;;18.32;83.43
31331;BME280;34067;39.548;-76.088;2022-10-26T01:45:24;101461.34;;;17.80;84.88
31331;BME280;34067;39.548;-76.088;2022-10-26T01:47:53;101464.20;;;18.23;83.90
31331;BME280;34067;39.548;-76.088;2022-10-26T01:50:23;101459.98;;;17.66;84.22
31331;BME280;34067;39.548;-76.088;2022-10-26T01:52:51;101458.84;;;18.13;84.01
31331;BME280;34067;39.548;-76.088;2022-10-26T01:55:52;101460.19;;;18.20;83.76
31331;BME280;34067;39.548;-76.088;2022-10-26T01:58:50;101459.63;;;17.58;84.82
31331;BME280;34067;39.548;-76.088;2022-10-26T02:01:34;101464.33;;;18.28;85.99
31331;BME280;34067;39.548;-76.088;2022-10-26T02:04:14;101466.54;;;17.17;87.90
31331;BME280;34067;39.548;-76.088;2022-10-26T02:06:54;101468.48;;;17.55;87.44
31331;BME280;34067;39.548;-76.088;2022-10-26T02:09:32;101466.32;;;17.63;87.08
31331;BME280;34067;39.548;-76.088;2022-10-26T02:12:08;101463.20;;;18.05;85.83
31331;BME280;34067;39.548;-76.088;2022-10-26T02:14:46;101465.05;;;18.37;86.19
31331;BME280;34067;39.548;-76.088;2022-10-26T02:17:22;101462.39;;;17.93;86.33
31331;BME280;34067;39.548;-76.088;2022-10-26T02:19:55;101465.45;;;18.50;85.99
31331;BME280;34067;39.548;-76.088;2022-10-26T02:22:30;101462.99;;;17.82;87.22
31331;BME280;34067;39.548;-76.088;2022-10-26T02:25:05;101461.48;;;17.98;87.06
31331;BME280;34067;39.548;-76.088;2022-10-26T02:27:38;101459.75;;;17.74;86.42
31331;BME280;34067;39.548;-76.088;2022-10-26T02:30:09;101459.93;;;18.29;85.93
31331;BME280;34067;39.548;-76.088;2022-10-26T02:32:41;101459.37;;;18.49;85.51
31331;BME280;34067;39.548;-76.088;2022-10-26T02:35:11;101458.00;;;18.58;85.10
31331;BME280;34067;39.548;-76.088;2022-10-26T02:37:42;101453.62;;;18.67;84.43
31331;BME280;34067;39.548;-76.088;2022-10-26T02:40:15;101450.67;;;18.50;85.10
31331;BME280;34067;39.548;-76.088;2022-10-26T02:42:45;101450.09;;;18.57;85.05
31331;BME280;34067;39.548;-76.088;2022-10-26T02:45:20;101446.60;;;18.01;85.66
31331;BME280;34067;39.548;-76.088;2022-10-26T02:47:49;101444.04;;;18.13;85.59
31331;BME280;34067;39.548;-76.088;2022-10-26T02:50:20;101438.69;;;18.76;84.48
31331;BME280;34067;39.548;-76.088;2022-10-26T02:52:53;101431.72;;;18.45;85.23
31331;BME280;34067;39.548;-76.088;2022-10-26T02:55:29;101429.14;;;17.97;85.61
31331;BME280;34067;39.548;-76.088;2022-10-26T02:58:01;101433.05;;;18.51;85.01
31331;BME280;34067;39.548;-76.088;2022-10-26T03:00:31;101434.49;;;18.72;84.42
31331;BME280;34067;39.548;-76.088;2022-10-26T03:02:59;101437.06;;;18.72;84.34
31331;BME280;34067;39.548;-76.088;2022-10-26T03:05:29;101431.82;;;18.72;84.14
31331;BME280;34067;39.548;-76.088;2022-10-26T03:07:58;101430.92;;;18.34;84.70
31331;BME280;34067;39.548;-76.088;2022-10-26T03:10:26;101430.79;;;18.41;85.37
31331;BME280;34067;39.548;-76.088;2022-10-26T03:12:54;101431.16;;;18.31;86.01
31331;BME280;34067;39.548;-76.088;2022-10-26T03:15:21;101431.70;;;18.43;85.65
31331;BME280;34067;39.548;-76.088;2022-10-26T03:17:49;101426.28;;;18.42;84.78
31331;BME280;34067;39.548;-76.088;2022-10-26T03:20:17;101419.27;;;18.42;85.27
31331;BME280;34067;39.548;-76.088;2022-10-26T03:22:46;101414.29;;;17.89;85.17
31331;BME280;34067;39.548;-76.088;2022-10-26T03:25:14;101412.79;;;18.02;85.55
31331;BME280;34067;39.548;-76.088;2022-10-26T03:27:43;101409.12;;;18.19;86.13
31331;BME280;34067;39.548;-76.088;2022-10-26T03:30:11;101406.66;;;18.00;86.77
31331;BME280;34067;39.548;-76.088;2022-10-26T03:32:38;101399.88;;;18.03;86.77
31331;BME280;34067;39.548;-76.088;2022-10-26T03:35:07;101402.15;;;18.13;86.05
31331;BME280;34067;39.548;-76.088;2022-10-26T03:37:35;101400.62;;;18.14;86.44
31331;BME280;34067;39.548;-76.088;2022-10-26T03:40:04;101397.60;;;18.13;86.16
31331;BME280;34067;39.548;-76.088;2022-10-26T03:42:35;101393.33;;;17.40;85.90
31331;BME280;34067;39.548;-76.088;2022-10-26T03:45:03;101392.06;;;18.15;86.51
31331;BME280;34067;39.548;-76.088;2022-10-26T03:47:31;101393.78;;;18.22;86.01
31331;BME280;34067;39.548;-76.088;2022-10-26T03:49:59;101395.05;;;18.38;85.62
31331;BME280;34067;39.548;-76.088;2022-10-26T03:52:26;101397.75;;;18.22;86.11
31331;BME280;34067;39.548;-76.088;2022-10-26T03:54:54;101394.51;;;17.94;86.73
31331;BME280;34067;39.548;-76.088;2022-10-26T03:57:22;101389.39;;;18.08;85.95
31331;BME280;34067;39.548;-76.088;2022-10-26T03:59:51;101386.46;;;17.99;86.00
31331;BME280;34067;39.548;-76.088;2022-10-26T04:02:19;101383.41;;;18.28;85.06
31331;BME280;34067;39.548;-76.088;2022-10-26T04:04:46;101381.77;;;17.99;85.69
31331;BME280;34067;39.548;-76.088;2022-10-26T04:07:14;101376.88;;;17.91;86.09
31331;BME280;34067;39.548;-76.088;2022-10-26T04:09:42;101375.56;;;17.90;86.44
31331;BME280;34067;39.548;-76.088;2022-10-26T04:12:10;101370.27;;;18.12;85.52
31331;BME280;34067;39.548;-76.088;2022-10-26T04:14:38;101368.03;;;18.62;85.40
31331;BME280;34067;39.548;-76.088;2022-10-26T04:17:06;101364.56;;;18.29;85.02
31331;BME280;34067;39.548;-76.088;2022-10-26T04:19:34;101359.98;;;18.72;84.80
31331;BME280;34067;39.548;-76.088;2022-10-26T04:22:02;101357.50;;;18.49;85.01
31331;BME280;34067;39.548;-76.088;2022-10-26T04:24:30;101357.62;;;18.42;85.53
31331;BME280;34067;39.548;-76.088;2022-10-26T04:26:58;101354.13;;;17.82;86.21
31331;BME280;34067;39.548;-76.088;2022-10-26T04:29:26;101346.63;;;17.92;86.37
31331;BME280;34067;39.548;-76.088;2022-10-26T04:31:54;101344.67;;;18.17;85.32
31331;BME280;34067;39.548;-76.088;2022-10-26T04:34:22;101340.38;;;18.33;84.79
31331;BME280;34067;39.548;-76.088;2022-10-26T04:36:50;101331.12;;;18.40;84.78
31331;BME280;34067;39.548;-76.088;2022-10-26T04:39:18;101325.79;;;18.54;83.73
31331;BME280;34067;39.548;-76.088;2022-10-26T04:41:46;101326.54;;;17.98;85.51
31331;BME280;34067;39.548;-76.088;2022-10-26T04:44:14;101326.77;;;17.78;86.49
31331;BME280;34067;39.548;-76.088;2022-10-26T04:46:42;101324.43;;;17.92;85.97
31331;BME280;34067;39.548;-76.088;2022-10-26T04:49:10;101318.45;;;17.98;85.89
31331;BME280;34067;39.548;-76.088;2022-10-26T04:51:38;101312.57;;;18.62;85.28
31331;BME280;34067;39.548;-76.088;2022-10-26T04:54:06;101307.86;;;18.35;84.72
31331;BME280;34067;39.548;-76.088;2022-10-26T04:56:34;101309.22;;;17.91;85.85
31331;BME280;34067;39.548;-76.088;2022-10-26T04:59:02;101303.09;;;18.09;85.29
31331;BME280;34067;39.548;-76.088;2022-10-26T05:03:11;101295.16;;;18.63;84.73
31331;BME280;34067;39.548;-76.088;2022-10-26T05:05:39;101294.55;;;17.72;84.99
31331;BME280;34067;39.548;-76.088;2022-10-26T05:08:07;101296.94;;;18.29;84.92
31331;BME280;34067;39.548;-76.088;2022-10-26T05:10:35;101298.93;;;18.13;85.55
31331;BME280;34067;39.548;-76.088;2022-10-26T05:13:03;101295.93;;;18.27;85.07
31331;BME280;34067;39.548;-76.088;2022-10-26T05:15:31;101294.47;;;18.59;85.12
31331;BME280;34067;39.548;-76.088;2022-10-26T05:18:00;101292.99;;;18.01;86.13
31331;BME280;34067;39.548;-76.088;2022-10-26T05:20:31;101291.48;;;18.43;86.10
31331;BME280;34067;39.548;-76.088;2022-10-26T05:23:00;101301.31;;;18.17;86.90
31331;BME280;34067;39.548;-76.088;2022-10-26T05:25:30;101297.86;;;17.74;87.18
31331;BME280;34067;39.548;-76.088;2022-10-26T05:27:59;101293.97;;;17.81;86.91
31331;BME280;34067;39.548;-76.088;2022-10-26T05:30:28;101294.52;;;17.73;87.17
31331;BME280;34067;39.548;-76.088;2022-10-26T05:32:57;101294.66;;;17.84;87.98
31331;BME280;34067;39.548;-76.088;2022-10-26T05:35:26;101297.56;;;17.83;87.38
31331;BME280;34067;39.548;-76.088;2022-10-26T05:37:54;101298.23;;;17.81;87.17
31331;BME280;34067;39.548;-76.088;2022-10-26T05:40:23;101291.52;;;18.32;86.78
31331;BME280;34067;39.548;-76.088;2022-10-26T05:42:51;101293.10;;;17.16;88.49
31331;BME280;34067;39.548;-76.088;2022-10-26T05:45:18;101287.29;;;17.40;87.43
31331;BME280;34067;39.548;-76.088;2022-10-26T05:47:47;101286.13;;;17.69;87.05
31331;BME280;34067;39.548;-76.088;2022-10-26T05:50:14;101277.67;;;17.91;86.55
31331;BME280;34067;39.548;-76.088;2022-10-26T05:52:43;101270.36;;;17.99;85.94
31331;BME280;34067;39.548;-76.088;2022-10-26T05:55:14;101273.22;;;17.42;86.54
31331;BME280;34067;39.548;-76.088;2022-10-26T05:57:43;101272.87;;;18.52;85.52
31331;BME280;34067;39.548;-76.088;2022-10-26T06:00:16;101277.24;;;17.81;85.28
31331;BME280;34067;39.548;-76.088;2022-10-26T06:02:54;101273.07;;;18.32;84.77
31331;BME280;34067;39.548;-76.088;2022-10-26T06:05:29;101272.10;;;18.17;84.75
31331;BME280;34067;39.548;-76.088;2022-10-26T06:08:00;101268.36;;;17.86;86.96
31331;BME280;34067;39.548;-76.088;2022-10-26T06:10:28;101267.13;;;17.93;86.70
31331;BME280;34067;39.548;-76.088;2022-10-26T06:12:57;101267.15;;;17.35;87.17
31331;BME280;34067;39.548;-76.088;2022-10-26T06:15:26;101267.23;;;18.00;88.48
31331;BME280;34067;39.548;-76.088;2022-10-26T06:18:01;101265.94;;;17.71;87.77
31331;BME280;34067;39.548;-76.088;2022-10-26T06:20:42;101266.14;;;17.49;88.41
31331;BME280;34067;39.548;-76.088;2022-10-26T06:23:31;101268.14;;;17.15;89.33
31331;BME280;34067;39.548;-76.088;2022-10-26T06:26:10;101254.78;;;17.69;89.48
31331;BME280;34067;39.548;-76.088;2022-10-26T06:28:49;101248.36;;;17.34;89.24
31331;BME280;34067;39.548;-76.088;2022-10-26T06:31:21;101246.60;;;17.58;88.48
31331;BME280;34067;39.548;-76.088;2022-10-26T06:33:50;101240.70;;;18.01;87.26
31331;BME280;34067;39.548;-76.088;2022-10-26T06:36:22;101235.63;;;17.66;86.65
31331;BME280;34067;39.548;-76.088;2022-10-26T06:38:54;101227.69;;;17.87;86.25
31331;BME280;34067;39.548;-76.088;2022-10-26T06:41:25;101223.47;;;17.48;85.85
31331;BME280;34067;39.548;-76.088;2022-10-26T06:43:53;101223.68;;;18.00;85.44
31331;BME280;34067;39.548;-76.088;2022-10-26T06:46:27;101221.91;;;18.15;85.16
31331;BME280;34067;39.548;-76.088;2022-10-26T06:49:04;101223.11;;;18.63;85.04
31331;BME280;34067;39.548;-76.088;2022-10-26T06:51:38;101221.24;;;18.45;84.25
31331;BME280;34067;39.548;-76.088;2022-10-26T06:54:14;101219.45;;;18.29;84.33
31331;BME280;34067;39.548;-76.088;2022-10-26T06:56:46;101216.52;;;18.32;84.52
31331;BME280;34067;39.548;-76.088;2022-10-26T06:59:20;101206.26;;;18.03;83.57
31331;BME280;34067;39.548;-76.088;2022-10-26T07:01:51;101203.10;;;17.96;85.07
31331;BME280;34067;39.548;-76.088;2022-10-26T07:04:18;101199.61;;;17.83;86.78
31331;BME280;34067;39.548;-76.088;2022-10-26T07:06:46;101195.84;;;17.48;87.27
31331;BME280;34067;39.548;-76.088;2022-10-26T07:09:13;101195.24;;;17.47;87.46
31331;BME280;34067;39.548;-76.088;2022-10-26T07:11:41;101195.67;;;17.64;87.06
31331;BME280;34067;39.548;-76.088;2022-10-26T07:14:09;101194.54;;;18.12;86.78
31331;BME280;34067;39.548;-76.088;2022-10-26T07:16:37;101192.17;;;18.18;86.56
31331;BME280;34067;39.548;-76.088;2022-10-26T07:19:05;101187.66;;;17.97;86.04
31331;BME280;34067;39.548;-76.088;2022-10-26T07:21:33;101181.40;;;18.16;85.36
31331;BME280;34067;39.548;-76.088;2022-10-26T07:24:01;101175.36;;;18.02;85.47
31331;BME280;34067;39.548;-76.088;2022-10-26T07:26:29;101178.93;;;17.95;86.01
31331;BME280;34067;39.548;-76.088;2022-10-26T07:28:57;101178.03;;;18.12;85.60
31331;BME280;34067;39.548;-76.088;2022-10-26T07:31:25;101174.62;;;18.01;85.34
31331;BME280;34067;39.548;-76.088;2022-10-26T07:33:53;101174.24;;;17.80;86.26
31331;BME280;34067;39.548;-76.088;2022-10-26T07:36:21;101176.42;;;18.37;86.01
31331;BME280;34067;39.548;-76.088;2022-10-26T07:38:51;101172.45;;;18.15;85.43
31331;BME280;34067;39.548;-76.088;2022-10-26T07:41:18;101167.60;;;18.42;85.61
31331;BME280;34067;39.548;-76.088;2022-10-26T07:43:46;101163.66;;;18.03;85.91
31331;BME280;34067;39.548;-76.088;2022-10-26T07:46:14;101159.81;;;18.16;85.46
31331;BME280;34067;39.548;-76.088;2022-10-26T07:48:42;101145.16;;;18.13;84.99
31331;BME280;34067;39.548;-76.088;2022-10-26T07:51:10;101142.86;;;18.63;85.01
31331;BME280;34067;39.548;-76.088;2022-10-26T07:53:38;101139.42;;;18.54;85.25
31331;BME280;34067;39.548;-76.088;2022-10-26T07:56:07;101137.76;;;18.18;85.11
31331;BME280;34067;39.548;-76.088;2022-10-26T07:58:35;101140.42;;;18.09;85.16
31331;BME280;34067;39.548;-76.088;2022-10-26T08:01:06;101142.92;;;17.96;85.43
31331;BME280;34067;39.548;-76.088;2022-10-26T08:03:35;101143.95;;;17.93;85.94
31331;BME280;34067;39.548;-76.088;2022-10-26T08:06:04;101147.03;;;17.88;86.17
31331;BME280;34067;39.548;-76.088;2022-10-26T08:08:33;101148.96;;;17.90;86.09
31331;BME280;34067;39.548;-76.088;2022-10-26T08:11:01;101144.61;;;17.82;86.45
31331;BME280;34067;39.548;-76.088;2022-10-26T08:13:29;101142.37;;;17.71;86.84
31331;BME280;34067;39.548;-76.088;2022-10-26T08:15:58;101139.97;;;18.33;86.46
31331;BME280;34067;39.548;-76.088;2022-10-26T08:18:26;101141.23;;;18.30;86.32
31331;BME280;34067;39.548;-76.088;2022-10-26T08:20:59;101141.58;;;18.12;86.91
31331;BME280;34067;39.548;-76.088;2022-10-26T08:23:28;101132.70;;;17.98;87.69
31331;BME280;34067;39.548;-76.088;2022-10-26T08:25:58;101124.98;;;17.98;87.67
31331;BME280;34067;39.548;-76.088;2022-10-26T08:28:26;101118.34;;;17.75;87.41
31331;BME280;34067;39.548;-76.088;2022-10-26T08:30:55;101112.05;;;18.00;86.14
31331;BME280;34067;39.548;-76.088;2022-10-26T08:33:24;101112.55;;;17.99;86.19
31331;BME280;34067;39.548;-76.088;2022-10-26T08:35:55;101110.77;;;17.59;85.94
31331;BME280;34067;39.548;-76.088;2022-10-26T08:38:23;101106.61;;;18.25;85.17
31331;BME280;34067;39.548;-76.088;2022-10-26T08:40:52;101105.69;;;17.78;86.50
31331;BME280;34067;39.548;-76.088;2022-10-26T08:43:26;101104.64;;;17.95;87.56
31331;BME280;34067;39.548;-76.088;2022-10-26T08:45:59;101098.71;;;17.93;86.47
31331;BME280;34067;39.548;-76.088;2022-10-26T08:48:32;101101.08;;;18.00;86.20
31331;BME280;34067;39.548;-76.088;2022-10-26T08:51:06;101098.09;;;18.37;86.09
31331;BME280;34067;39.548;-76.088;2022-10-26T08:53:40;101096.45;;;17.97;86.25
31331;BME280;34067;39.548;-76.088;2022-10-26T08:56:15;101094.40;;;18.05;85.78
31331;BME280;34067;39.548;-76.088;2022-10-26T08:58:50;101091.10;;;18.31;85.88
31331;BME280;34067;39.548;-76.088;2022-10-26T09:01:20;101090.44;;;18.31;85.61
31331;BME280;34067;39.548;-76.088;2022-10-26T09:03:48;101093.91;;;18.14;86.37
31331;BME280;34067;39.548;-76.088;2022-10-26T09:06:22;101094.02;;;18.23;86.06
31331;BME280;34067;39.548;-76.088;2022-10-26T09:09:01;101089.31;;;17.90;85.70
31331;BME280;34067;39.548;-76.088;2022-10-26T09:11:44;101087.57;;;17.82;86.14
31331;BME280;34067;39.548;-76.088;2022-10-26T09:14:18;101083.23;;;17.75;85.70
31331;BME280;34067;39.548;-76.088;2022-10-26T09:16:59;101082.04;;;17.71;85.91
31331;BME280;34067;39.548;-76.088;2022-10-26T09:19:54;101083.58;;;18.09;86.61
31331;BME280;34067;39.548;-76.088;2022-10-26T09:22:28;101078.95;;;17.72;86.27
31331;BME280;34067;39.548;-76.088;2022-10-26T09:25:05;101076.26;;;18.15;86.57
31331;BME280;34067;39.548;-76.088;2022-10-26T09:27:43;101078.82;;;17.73;86.71
31331;BME280;34067;39.548;-76.088;2022-10-26T09:30:14;101081.85;;;17.74;86.69
31331;BME280;34067;39.548;-76.088;2022-10-26T09:32:46;101070.73;;;17.66;86.78
31331;BME280;34067;39.548;-76.088;2022-10-26T09:35:17;101069.47;;;17.84;86.50
31331;BME280;34067;39.548;-76.088;2022-10-26T09:37:50;101065.32;;;18.36;86.25
31331;BME280;34067;39.548;-76.088;2022-10-26T09:40:24;101060.76;;;18.10;85.34
31331;BME280;34067;39.548;-76.088;2022-10-26T09:42:57;101060.28;;;17.71;86.63
31331;BME280;34067;39.548;-76.088;2022-10-26T09:45:29;101060.76;;;18.05;87.16
31331;BME280;34067;39.548;-76.088;2022-10-26T09:48:06;101061.05;;;17.65;87.15
31331;BME280;34067;39.548;-76.088;2022-10-26T09:50:41;101064.03;;;17.57;87.63
31331;BME280;34067;39.548;-76.088;2022-10-26T09:53:11;101057.57;;;17.98;86.09
31331;BME280;34067;39.548;-76.088;2022-10-26T09:55:41;101054.04;;;18.59;87.01
31331;BME280;34067;39.548;-76.088;2022-10-26T09:58:15;101054.80;;;18.14;86.85
31331;BME280;34067;39.548;-76.088;2022-10-26T10:00:45;101053.20;;;18.04;86.99
31331;BME280;34067;39.548;-76.088;2022-10-26T10:03:19;101050.77;;;17.59;87.46
31331;BME280;34067;39.548;-76.088;2022-10-26T10:05:47;101058.29;;;17.60;87.45
31331;BME280;34067;39.548;-76.088;2022-10-26T10:08:18;101059.06;;;17.91;86.41
31331;BME280;34067;39.548;-76.088;2022-10-26T10:10:56;101060.48;;;18.31;86.59
31331;BME280;34067;39.548;-76.088;2022-10-26T10:13:27;101063.14;;;17.76;86.78
31331;BME280;34067;39.548;-76.088;2022-10-26T10:16:03;101060.58;;;17.85;86.76
31331;BME280;34067;39.548;-76.088;2022-10-26T10:18:32;101062.72;;;18.35;86.21
31331;BME280;34067;39.548;-76.088;2022-10-26T10:21:01;101061.86;;;18.09;85.73
31331;BME280;34067;39.548;-76.088;2022-10-26T10:23:31;101057.02;;;18.15;85.56
31331;BME280;34067;39.548;-76.088;2022-10-26T10:26:04;101060.50;;;18.22;85.27
31331;BME280;34067;39.548;-76.088;2022-10-26T10:28:33;101062.14;;;18.31;85.12
31331;BME280;34067;39.548;-76.088;2022-10-26T10:31:03;101063.08;;;18.18;85.56
31331;BME280;34067;39.548;-76.088;2022-10-26T10:33:35;101056.78;;;18.05;86.10
31331;BME280;34067;39.548;-76.088;2022-10-26T10:36:07;101053.10;;;18.46;86.02
31331;BME280;34067;39.548;-76.088;2022-10-26T10:38:38;101048.48;;;18.20;85.52
31331;BME280;34067;39.548;-76.088;2022-10-26T10:41:16;101041.13;;;17.94;86.05
31331;BME280;34067;39.548;-76.088;2022-10-26T10:43:47;101038.48;;;18.07;85.27
31331;BME280;34067;39.548;-76.088;2022-10-26T10:46:19;101032.54;;;18.08;85.51
31331;BME280;34067;39.548;-76.088;2022-10-26T10:48:54;101033.51;;;18.03;85.92
31331;BME280;34067;39.548;-76.088;2022-10-26T10:51:27;101034.20;;;18.46;86.03
31331;BME280;34067;39.548;-76.088;2022-10-26T10:53:56;101032.78;;;18.21;85.59
31331;BME280;34067;39.548;-76.088;2022-10-26T10:56:33;101029.11;;;18.00;85.96
31331;BME280;34067;39.548;-76.088;2022-10-26T11:00:00;101027.25;;;17.99;86.07
31331;BME280;34067;39.548;-76.088;2022-10-26T11:02:49;101023.71;;;18.19;85.66
31331;BME280;34067;39.548;-76.088;2022-10-26T11:05:32;101021.93;;;18.14;85.56
31331;BME280;34067;39.548;-76.088;2022-10-26T11:08:08;101025.99;;;18.36;84.69
31331;BME280;34067;39.548;-76.088;2022-10-26T11:10:43;101024.37;;;18.52;85.06
31331;BME280;34067;39.548;-76.088;2022-10-26T11:13:19;101022.18;;;18.14;86.68
31331;BME280;34067;39.548;-76.088;2022-10-26T11:15:51;101009.81;;;17.89;86.36
31331;BME280;34067;39.548;-76.088;2022-10-26T11:18:28;101008.16;;;17.38;87.03
31331;BME280;34067;39.548;-76.088;2022-10-26T11:21:03;101011.40;;;17.55;87.29
31331;BME280;34067;39.548;-76.088;2022-10-26T11:23:39;101016.96;;;17.36;87.98
31331;BME280;34067;39.548;-76.088;2022-10-26T11:26:12;101007.36;;;18.01;89.07
31331;BME280;34067;39.548;-76.088;2022-10-26T11:28:48;101007.63;;;17.35;90.31
31331;BME280;34067;39.548;-76.088;2022-10-26T11:31:24;101009.16;;;17.67;89.19
31331;BME280;34067;39.548;-76.088;2022-10-26T11:34:09;101012.10;;;17.75;89.00
31331;BME280;34067;39.548;-76.088;2022-10-26T11:36:42;101011.52;;;17.59;88.00
31331;BME280;34067;39.548;-76.088;2022-10-26T11:39:19;101006.88;;;18.07;87.36
31331;BME280;34067;39.548;-76.088;2022-10-26T11:41:52;101004.43;;;17.42;88.43
31331;BME280;34067;39.548;-76.088;2022-10-26T11:44:26;101001.73;;;17.95;86.71
31331;BME280;34067;39.548;-76.088;2022-10-26T11:46:59;101003.88;;;18.34;86.41
31331;BME280;34067;39.548;-76.088;2022-10-26T11:49:34;101002.84;;;18.46;86.01
31331;BME280;34067;39.548;-76.088;2022-10-26T11:52:11;101000.42;;;18.23;85.67
31331;BME280;34067;39.548;-76.088;2022-10-26T11:54:43;100999.22;;;18.13;85.47
31331;BME280;34067;39.548;-76.088;2022-10-26T11:57:14;100998.25;;;18.57;85.36
31331;BME280;34067;39.548;-76.088;2022-10-26T11:59:44;100999.67;;;18.67;85.03
31331;BME280;34067;39.548;-76.088;2022-10-26T12:02:17;100993.25;;;18.11;85.52
31331;BME280;34067;39.548;-76.088;2022-10-26T12:04:52;100992.91;;;18.06;86.05
31331;BME280;34067;39.548;-76.088;2022-10-26T12:07:25;100987.55;;;18.16;85.87
31331;BME280;34067;39.548;-76.088;2022-10-26T12:09:56;100987.31;;;18.34;85.15
31331;BME280;34067;39.548;-76.088;2022-10-26T12:12:34;100984.16;;;18.20;86.60
31331;BME280;34067;39.548;-76.088;2022-10-26T12:15:17;100984.04;;;17.81;86.44
31331;BME280;34067;39.548;-76.088;2022-10-26T12:17:51;100982.63;;;18.08;86.48
31331;BME280;34067;39.548;-76.088;2022-10-26T12:21:27;100986.00;;;17.90;87.18
31331;BME280;34067;39.548;-76.088;2022-10-26T12:23:58;100990.74;;;18.12;87.82
31331;BME280;34067;39.548;-76.088;2022-10-26T12:26:46;100995.51;;;17.87;88.74
31331;BME280;34067;39.548;-76.088;2022-10-26T12:30:21;100990.02;;;17.72;88.39
31331;BME280;34067;39.548;-76.088;2022-10-26T12:32:52;100993.37;;;18.03;87.41
31331;BME280;34067;39.548;-76.088;2022-10-26T12:35:34;100994.82;;;18.19;86.79
31331;BME280;34067;39.548;-76.088;2022-10-26T12:38:54;100991.85;;;18.31;86.28
31331;BME280;34067;39.548;-76.088;2022-10-26T12:41:24;100994.28;;;18.06;86.50
31331;BME280;34067;39.548;-76.088;2022-10-26T12:44:30;100994.75;;;18.59;86.04
31331;BME280;34067;39.548;-76.088;2022-10-26T12:46:59;100997.91;;;18.22;86.03
31331;BME280;34067;39.548;-76.088;2022-10-26T12:50:23;101009.00;;;18.96;86.84
31331;BME280;34067;39.548;-76.088;2022-10-26T12:52:52;101018.21;;;17.66;87.97
31331;BME280;34067;39.548;-76.088;2022-10-26T12:55:32;101018.84;;;17.15;89.90
31331;BME280;34067;39.548;-76.088;2022-10-26T12:59:00;101026.35;;;16.37;92.52
31331;BME280;34067;39.548;-76.088;2022-10-26T13:01:45;101030.82;;;16.75;91.67